Time;durP1;ratioP1;P1;durP2;ratioP2;P2;SDS_P1;SDS_P2;PMS_P1;PMS_P2;Temp;Humidity;BMP_temperature;BMP_pressure;BME280_temperature;BME280_humidity;BME280_pressure;Samples;Min_cycle;Max_cycle;Signal;HPM_P1;HPM_P2
2024/02/01 00:02:18;;;;;;;0.10;0.10;;;9.10;99.90;;;;;;10506427;28;20127;-55
2024/02/01 00:07:20;;;;;;;0.20;0.20;;;9.20;99.90;;;;;;10518094;28;20098;-56
2024/02/01 00:12:23;;;;;;;0.63;0.63;;;9.50;99.90;;;;;;10518062;28;20126;-58
2024/02/01 00:17:25;;;;;;;0.20;0.20;;;9.30;99.90;;;;;;10517147;28;20049;-56
2024/02/01 00:22:27;;;;;;;1.45;1.45;;;9.20;99.90;;;;;;10513282;28;20043;-54
2024/02/01 00:27:31;;;;;;;0.10;0.10;;;9.10;99.90;;;;;;10513025;28;20893;-55
2024/02/01 00:32:33;;;;;;;1.65;1.55;;;9.30;99.90;;;;;;10509065;28;20162;-56
2024/02/01 00:37:35;;;;;;;4.40;1.03;;;9.40;99.90;;;;;;10522012;28;20512;-57
2024/02/01 00:42:38;;;;;;;0.40;0.40;;;9.30;99.90;;;;;;10522915;28;20166;-57
2024/02/01 00:47:40;;;;;;;2.10;1.95;;;9.30;99.90;;;;;;10522776;28;20105;-57
2024/02/01 00:52:43;;;;;;;0.10;0.10;;;9.40;99.90;;;;;;10521273;28;20244;-56
2024/02/01 00:57:46;;;;;;;3.42;2.10;;;9.60;99.90;;;;;;10519274;28;20044;-52
2024/02/01 01:02:48;;;;;;;0.20;0.20;;;9.50;99.90;;;;;;10514941;28;20055;-57
2024/02/01 01:07:50;;;;;;;0.38;0.38;;;9.40;99.90;;;;;;10515510;28;20047;-57
2024/02/01 01:12:54;;;;;;;0.20;0.20;;;9.30;99.90;;;;;;10519779;28;20138;-56
2024/02/01 01:17:56;;;;;;;0.10;0.10;;;9.50;99.90;;;;;;10523195;28;20052;-59
2024/02/01 01:22:58;;;;;;;0.40;0.40;;;9.40;99.90;;;;;;10514509;28;20055;-57
2024/02/01 01:28:02;;;;;;;0.10;0.10;;;9.60;99.90;;;;;;10517582;28;20162;-60
2024/02/01 01:33:05;;;;;;;0.15;0.15;;;9.60;99.90;;;;;;10516874;28;20051;-57
2024/02/01 01:38:07;;;;;;;0.10;0.10;;;9.40;99.90;;;;;;10516929;28;20138;-57
2024/02/01 01:43:10;;;;;;;0.47;0.47;;;9.40;99.90;;;;;;10508091;28;20054;-54
2024/02/01 01:48:12;;;;;;;0.10;0.10;;;9.40;99.90;;;;;;10510957;28;20107;-59
2024/02/01 01:53:15;;;;;;;1.13;1.13;;;9.50;99.90;;;;;;10527557;28;20044;-56
2024/02/01 01:58:20;;;;;;;0.00;0.00;;;9.60;99.90;;;;;;10520982;28;20103;-56
2024/02/01 02:03:27;;;;;;;36.58;2.38;;;9.50;99.90;;;;;;10526745;28;20059;-56
2024/02/01 02:08:29;;;;;;;0.52;0.52;;;9.60;99.90;;;;;;10517899;28;20557;-59
2024/02/01 02:13:33;;;;;;;0.93;0.93;;;9.40;99.90;;;;;;10522259;28;20051;-56
2024/02/01 02:18:35;;;;;;;0.10;0.10;;;9.10;99.90;;;;;;10524124;28;20051;-57
2024/02/01 02:23:39;;;;;;;0.22;0.22;;;9.50;99.90;;;;;;10526244;28;20116;-55
2024/02/01 02:28:41;;;;;;;1.00;0.90;;;9.60;99.90;;;;;;10519889;28;20044;-56
2024/02/01 02:33:43;;;;;;;0.10;0.10;;;9.70;99.90;;;;;;10525883;28;20063;-55
2024/02/01 02:38:47;;;;;;;0.10;0.10;;;10.00;99.90;;;;;;10527559;28;20040;-57
2024/02/01 02:43:49;;;;;;;0.10;0.10;;;10.00;99.90;;;;;;10527093;28;20044;-56
2024/02/01 02:48:50;;;;;;;0.10;0.10;;;10.00;99.90;;;;;;10531181;28;20524;-56
2024/02/01 02:53:54;;;;;;;0.35;0.35;;;9.90;99.90;;;;;;10535914;28;20094;-57
2024/02/01 02:58:56;;;;;;;0.93;0.85;;;10.30;99.90;;;;;;10530444;28;20056;-58
2024/02/01 03:03:58;;;;;;;0.10;0.10;;;9.90;99.90;;;;;;10533001;28;20184;-57
2024/02/01 03:09:01;;;;;;;0.10;0.10;;;10.20;99.90;;;;;;10523016;28;20040;-56
2024/02/01 03:14:03;;;;;;;0.10;0.10;;;11.20;99.90;;;;;;10523559;28;20055;-57
2024/02/01 03:19:05;;;;;;;0.25;0.25;;;10.90;99.90;;;;;;10517409;28;20046;-55
2024/02/01 03:24:09;;;;;;;0.40;0.40;;;10.40;99.90;;;;;;10517021;28;20405;-56
2024/02/01 03:29:15;;;;;;;0.10;0.10;;;10.40;99.90;;;;;;10522886;28;20872;-57
2024/02/01 03:34:20;;;;;;;0.43;0.43;;;10.90;99.90;;;;;;10515179;28;20071;-57
2024/02/01 03:39:24;;;;;;;0.10;0.10;;;10.50;99.90;;;;;;10521337;28;20067;-56
2024/02/01 03:44:26;;;;;;;0.52;0.52;;;10.70;99.90;;;;;;10531292;28;20229;-55
2024/02/01 03:49:28;;;;;;;0.38;0.38;;;11.20;99.90;;;;;;10528903;28;20050;-56
2024/02/01 03:54:32;;;;;;;0.10;0.10;;;9.90;99.90;;;;;;10529133;28;20092;-53
2024/02/01 04:15:33;;;;;;;1.73;1.27;;;11.50;99.90;;;;;;10630780;27;20115;-53
2024/02/01 04:20:35;;;;;;;0.10;0.10;;;11.60;99.90;;;;;;10645671;27;20405;-55
2024/02/01 04:25:37;;;;;;;0.10;0.10;;;11.60;99.90;;;;;;10647064;27;20042;-53
2024/02/01 04:30:43;;;;;;;2.00;1.50;;;11.70;99.90;;;;;;10651907;27;20836;-58
2024/02/01 04:35:45;;;;;;;0.10;0.10;;;11.50;99.90;;;;;;10642985;27;20061;-57
2024/02/01 04:40:47;;;;;;;0.13;0.13;;;11.70;99.90;;;;;;10651136;27;20059;-66
2024/02/01 04:45:51;;;;;;;1.90;1.50;;;10.60;99.90;;;;;;10651241;27;20053;-55
2024/02/01 04:50:53;;;;;;;0.10;0.10;;;11.10;99.90;;;;;;10632442;27;20050;-54
2024/02/01 04:55:55;;;;;;;0.30;0.30;;;10.10;99.90;;;;;;10650034;27;20413;-56
2024/02/01 05:00:58;;;;;;;0.10;0.10;;;9.60;99.90;;;;;;10635440;27;20057;-57
2024/02/01 05:06:01;;;;;;;0.10;0.10;;;10.50;99.90;;;;;;10635809;27;20054;-56
2024/02/01 05:11:04;;;;;;;0.10;0.10;;;9.60;99.90;;;;;;10639144;27;20050;-58
2024/02/01 05:16:07;;;;;;;0.38;0.35;;;9.80;99.90;;;;;;10635170;27;20081;-56
2024/02/01 05:21:10;;;;;;;0.30;0.30;;;10.50;99.90;;;;;;10634848;27;20051;-58
2024/02/01 05:26:12;;;;;;;0.30;0.30;;;11.10;99.90;;;;;;10613064;27;20067;-53
2024/02/01 05:31:15;;;;;;;0.17;0.17;;;10.60;99.90;;;;;;10610060;27;20070;-59
2024/02/01 05:36:17;;;;;;;0.10;0.10;;;9.90;99.90;;;;;;10611741;27;20055;-57
2024/02/01 05:41:19;;;;;;;0.70;0.70;;;10.60;99.90;;;;;;10617016;27;20049;-57
2024/02/01 05:46:22;;;;;;;0.20;0.20;;;10.30;99.90;;;;;;10609571;27;20047;-56
2024/02/01 05:51:24;;;;;;;0.30;0.30;;;9.70;99.90;;;;;;10613357;27;20106;-56
2024/02/01 05:56:26;;;;;;;0.20;0.20;;;10.50;99.90;;;;;;10605192;27;20052;-57
2024/02/01 06:01:30;;;;;;;6.30;2.80;;;10.30;99.90;;;;;;10607333;27;20676;-59
2024/02/01 06:06:32;;;;;;;0.30;0.30;;;10.30;99.90;;;;;;10592302;27;20642;-57
2024/02/01 06:11:34;;;;;;;0.10;0.10;;;10.20;99.90;;;;;;10610824;27;20051;-58
2024/02/01 06:16:37;;;;;;;0.65;0.65;;;10.70;99.90;;;;;;10592667;27;20478;-57
2024/02/01 06:21:41;;;;;;;2.30;2.05;;;10.00;99.90;;;;;;10601924;27;20043;-57
2024/02/01 06:26:43;;;;;;;0.90;0.90;;;9.50;99.90;;;;;;10609723;27;20087;-58
2024/02/01 06:31:49;;;;;;;0.10;0.10;;;10.00;99.90;;;;;;10593950;27;20050;-58
2024/02/01 06:36:58;;;;;;;0.10;0.10;;;8.70;99.90;;;;;;10595975;27;20055;-57
2024/02/01 06:42:11;;;;;;;0.10;0.10;;;8.20;99.90;;;;;;10605020;27;20050;-58
2024/02/01 06:47:23;;;;;;;2.08;1.85;;;8.50;99.90;;;;;;10604181;27;20046;-57
2024/02/01 06:52:34;;;;;;;0.20;0.20;;;9.40;99.90;;;;;;10600646;27;20049;-56
2024/02/01 06:57:48;;;;;;;0.10;0.10;;;10.30;99.90;;;;;;10602324;27;20896;-57
2024/02/01 07:03:01;;;;;;;;;;;10.70;99.90;;;;;;10598846;27;20062;-57
2024/02/01 07:08:12;;;;;;;0.10;0.10;;;10.00;99.90;;;;;;10600805;27;20464;-58
2024/02/01 07:13:34;;;;;;;4.03;1.58;;;9.40;99.90;;;;;;10591664;27;20084;-58
2024/02/01 07:18:43;;;;;;;3.10;2.75;;;9.60;99.90;;;;;;10596376;27;20155;-56
2024/02/01 07:23:56;;;;;;;0.10;0.10;;;9.90;99.90;;;;;;10585172;27;20047;-57
2024/02/01 08:01:01;;;;;;;0.30;0.30;;;10.00;99.90;;;;;;10574477;27;20043;-56
2024/02/01 08:11:36;;;;;;;3.53;1.00;;;9.30;99.90;;;;;;10483778;27;20055;-57
2024/02/01 08:16:39;;;;;;;0.10;0.10;;;8.50;99.90;;;;;;10587036;27;20099;-56
2024/02/01 08:21:42;;;;;;;0.10;0.10;;;8.00;99.90;;;;;;10586044;27;20414;-60
2024/02/01 08:26:46;;;;;;;;;;;8.50;99.90;;;;;;10596329;27;20055;-58
2024/02/01 08:31:50;;;;;;;0.20;0.20;;;8.80;99.90;;;;;;10578377;27;19969;-59
2024/02/01 08:36:54;;;;;;;0.20;0.20;;;8.70;99.90;;;;;;10578153;27;20059;-56
2024/02/01 08:41:57;;;;;;;1.67;1.58;;;8.60;99.90;;;;;;10579721;27;20059;-58
2024/02/01 08:46:58;;;;;;;0.10;0.10;;;8.20;99.90;;;;;;10589691;27;20055;-53
2024/02/01 08:52:02;;;;;;;0.17;0.17;;;9.00;99.90;;;;;;10590877;27;20047;-62
2024/02/01 08:57:04;;;;;;;;;;;9.10;99.90;;;;;;10587077;27;20058;-62
2024/02/01 09:02:14;;;;;;;0.10;0.10;;;8.50;99.90;;;;;;10599520;27;19923;-63
2024/02/01 09:07:19;;;;;;;0.57;0.57;;;8.70;99.90;;;;;;10597387;27;20042;-63
2024/02/01 09:12:21;;;;;;;3.72;2.55;;;8.40;99.90;;;;;;10595288;27;20170;-62
2024/02/01 09:17:23;;;;;;;0.10;0.10;;;9.40;99.90;;;;;;10590118;27;21038;-63
2024/02/01 09:22:27;;;;;;;0.15;0.15;;;8.60;99.90;;;;;;10589252;27;20098;-64
2024/02/01 09:27:29;;;;;;;5.97;1.30;;;8.70;99.90;;;;;;10591717;27;20502;-63
2024/02/01 09:32:32;;;;;;;0.10;0.10;;;9.40;99.90;;;;;;10595541;27;20130;-63
2024/02/01 09:37:35;;;;;;;0.10;0.10;;;9.10;99.90;;;;;;10585532;27;20967;-64
2024/02/01 09:42:38;;;;;;;0.20;0.20;;;9.10;99.90;;;;;;10589960;27;20430;-64
2024/02/01 09:47:44;;;;;;;;;;;8.70;99.90;;;;;;10594802;27;20083;-62
2024/02/01 09:52:48;;;;;;;0.50;0.50;;;9.30;99.90;;;;;;10589913;27;20374;-62
2024/02/01 09:57:52;;;;;;;0.10;0.10;;;9.20;99.90;;;;;;10593370;27;20079;-62
2024/02/01 10:02:55;;;;;;;0.20;0.20;;;10.70;99.90;;;;;;10587716;27;20741;-62
2024/02/01 10:07:59;;;;;;;0.10;0.10;;;10.80;99.90;;;;;;10601565;27;20055;-62
2024/02/01 10:13:01;;;;;;;0.10;0.10;;;10.20;99.90;;;;;;10589942;27;20050;-61
2024/02/01 10:18:07;;;;;;;1.07;1.03;;;10.40;99.90;;;;;;10594326;27;20119;-61
2024/02/01 10:23:13;;;;;;;0.20;0.20;;;10.20;99.90;;;;;;10581726;27;20054;-63
2024/02/01 10:28:17;;;;;;;0.20;0.20;;;9.90;99.90;;;;;;10579110;27;20144;-64
2024/02/01 10:33:25;;;;;;;0.13;0.13;;;9.60;99.90;;;;;;10583933;27;20085;-63
2024/02/01 10:38:29;;;;;;;1.67;0.85;;;9.80;99.90;;;;;;10574683;27;20051;-63
2024/02/01 10:43:34;;;;;;;1.15;1.15;;;10.00;99.90;;;;;;10585869;27;20081;-62
2024/02/01 10:48:40;;;;;;;0.30;0.30;;;9.70;99.90;;;;;;10586117;27;20042;-61
2024/02/01 10:53:45;;;;;;;0.20;0.20;;;9.30;99.90;;;;;;10589233;27;20402;-60
2024/02/01 10:58:51;;;;;;;0.30;0.30;;;9.00;99.90;;;;;;10582266;27;20146;-61
2024/02/01 11:03:54;;;;;;;0.10;0.10;;;9.70;99.90;;;;;;10580139;27;20111;-58
2024/02/01 11:09:05;;;;;;;0.30;0.30;;;11.60;99.90;;;;;;10576049;27;20894;-62
2024/02/01 11:14:09;;;;;;;3.20;1.85;;;10.50;99.90;;;;;;10589305;27;20634;-63
2024/02/01 11:19:15;;;;;;;28.08;4.35;;;10.00;99.90;;;;;;10582131;27;20051;-61
2024/02/01 11:24:22;;;;;;;36.55;4.28;;;9.60;99.90;;;;;;10582239;27;20501;-61
2024/02/01 11:29:26;;;;;;;36.65;3.92;;;10.50;99.90;;;;;;10591025;27;20046;-62
2024/02/01 11:34:30;;;;;;;16.83;2.60;;;9.30;99.90;;;;;;10572133;27;20050;-62
2024/02/01 11:39:34;;;;;;;26.27;4.13;;;9.40;99.90;;;;;;10582530;27;20149;-62
2024/02/01 11:44:36;;;;;;;45.85;6.13;;;9.30;99.90;;;;;;10580112;27;20050;-62
2024/02/01 11:49:41;;;;;;;44.45;5.03;;;9.50;99.90;;;;;;10577581;27;20082;-62
2024/02/01 11:54:46;;;;;;;36.20;4.82;;;10.20;99.90;;;;;;10576815;27;20050;-62
2024/02/01 11:59:51;;;;;;;38.05;5.13;;;9.00;99.90;;;;;;10584679;27;20042;-61
2024/02/01 12:04:53;;;;;;;40.78;4.18;;;9.50;99.90;;;;;;10565418;27;20046;-62
2024/02/01 12:10:10;;;;;;;30.15;4.18;;;9.90;99.90;;;;;;10575981;27;20050;-62
2024/02/01 12:15:13;;;;;;;29.63;4.40;;;9.40;99.90;;;;;;10580496;27;20112;-62
2024/02/01 12:20:17;;;;;;;30.05;4.30;;;9.60;99.90;;;;;;10584071;27;20059;-62
2024/02/01 12:25:21;;;;;;;20.15;2.88;;;9.50;99.90;;;;;;10580984;27;20408;-62
2024/02/01 12:30:26;;;;;;;18.30;2.95;;;9.20;99.90;;;;;;10579838;27;20494;-62
2024/02/01 12:35:28;;;;;;;17.13;2.88;;;9.50;99.90;;;;;;10583801;27;20692;-60
2024/02/01 12:40:31;;;;;;;46.13;4.70;;;10.00;99.90;;;;;;10589453;27;20517;-67
2024/02/01 12:45:33;;;;;;;24.90;3.38;;;10.90;99.90;;;;;;10588603;27;20058;-64
2024/02/01 12:50:39;;;;;;;27.65;4.15;;;10.20;99.90;;;;;;10585178;27;23061;-62
2024/02/01 12:55:43;;;;;;;28.17;4.10;;;10.40;99.90;;;;;;10589988;27;20157;-63
2024/02/01 13:00:45;;;;;;;29.42;3.38;;;10.90;99.90;;;;;;10593420;27;20988;-61
2024/02/01 13:05:48;;;;;;;29.40;4.05;;;11.00;99.90;;;;;;10600266;27;20058;-62
2024/02/01 13:10:51;;;;;;;25.17;4.37;;;10.50;99.90;;;;;;10587339;27;20069;-62
2024/02/01 13:15:53;;;;;;;37.92;5.47;;;11.30;99.90;;;;;;10603461;27;20058;-62
2024/02/01 13:20:56;;;;;;;20.50;3.78;;;11.30;99.90;;;;;;10606646;27;20043;-62
2024/02/01 13:25:59;;;;;;;28.95;3.65;;;11.10;99.90;;;;;;10593173;27;20113;-63
2024/02/01 13:31:01;;;;;;;27.75;3.13;;;11.60;99.90;;;;;;10577666;27;20229;-62
2024/02/01 13:36:04;;;;;;;25.50;3.63;;;11.50;99.90;;;;;;10595977;27;21257;-63
2024/02/01 13:41:08;;;;;;;29.50;2.95;;;11.30;99.90;;;;;;10585341;27;20225;-63
2024/02/01 13:46:11;;;;;;;28.67;3.25;;;11.20;99.90;;;;;;10581876;27;20131;-63
2024/02/01 13:51:13;;;;;;;17.27;2.07;;;11.30;99.90;;;;;;10583497;27;20138;-62
2024/02/01 13:56:16;;;;;;;29.45;3.83;;;11.40;99.90;;;;;;10591594;27;20044;-63
2024/02/01 14:01:18;;;;;;;29.15;3.65;;;12.40;99.90;;;;;;10586259;27;20576;-62
2024/02/01 14:06:21;;;;;;;23.13;3.07;;;12.80;99.90;;;;;;10587432;27;20051;-62
2024/02/01 14:11:24;;;;;;;24.52;3.58;;;12.80;99.90;;;;;;10585165;27;20481;-63
2024/02/01 14:16:26;;;;;;;33.13;5.20;;;12.70;99.90;;;;;;10593685;27;20047;-63
2024/02/01 14:21:28;;;;;;;33.25;4.95;;;13.30;99.90;;;;;;10590973;27;20051;-61
2024/02/01 14:26:32;;;;;;;30.50;3.90;;;13.60;99.90;;;;;;10591370;27;20732;-62
2024/02/01 14:31:34;;;;;;;23.23;3.28;;;14.10;99.90;;;;;;10598206;27;20050;-63
2024/02/01 14:36:36;;;;;;;22.40;3.83;;;14.00;99.90;;;;;;10586084;27;20073;-62
2024/02/01 14:41:40;;;;;;;21.93;3.03;;;14.20;99.90;;;;;;10582717;27;20619;-62
2024/02/01 14:46:41;;;;;;;17.08;2.90;;;13.40;99.90;;;;;;10591425;27;20052;-63
2024/02/01 14:51:44;;;;;;;19.77;3.10;;;13.90;99.90;;;;;;10575168;27;20132;-61
2024/02/01 14:56:47;;;;;;;23.43;4.17;;;13.20;99.90;;;;;;10594499;27;20046;-62
2024/02/01 15:01:49;;;;;;;26.98;3.63;;;14.20;99.90;;;;;;10586366;27;20052;-62
2024/02/01 15:06:51;;;;;;;28.45;4.72;;;15.50;99.90;;;;;;10576126;27;21382;-62
2024/02/01 15:11:54;;;;;;;22.20;3.87;;;15.00;99.90;;;;;;10586102;27;20055;-63
2024/02/01 15:16:56;;;;;;;30.98;4.53;;;15.40;99.90;;;;;;10589196;27;20528;-64
2024/02/01 15:21:59;;;;;;;28.37;3.93;;;14.90;99.90;;;;;;10594067;27;20775;-64
2024/02/01 15:27:04;;;;;;;15.85;2.30;;;14.70;99.90;;;;;;10592077;27;20048;-61
2024/02/01 15:32:06;;;;;;;46.92;7.15;;;13.90;99.90;;;;;;10597528;27;20078;-63
2024/02/01 15:37:08;;;;;;;25.25;4.13;;;13.30;99.90;;;;;;10587772;27;20039;-61
2024/02/01 15:42:12;;;;;;;28.23;4.03;;;12.80;99.90;;;;;;10592699;27;20422;-61
2024/02/01 15:47:14;;;;;;;26.30;3.90;;;13.80;99.90;;;;;;10593935;27;20055;-62
2024/02/01 15:52:17;;;;;;;27.30;4.32;;;14.80;99.90;;;;;;10596372;27;20836;-62
2024/02/01 15:57:21;;;;;;;23.50;4.20;;;12.90;99.90;;;;;;10599467;27;20074;-62
2024/02/01 16:02:24;;;;;;;24.05;3.92;;;13.90;99.90;;;;;;10591451;27;20050;-61
2024/02/01 16:07:26;;;;;;;18.73;3.03;;;13.20;99.90;;;;;;10596256;27;20040;-62
2024/02/01 16:12:30;;;;;;;26.65;4.82;;;13.90;99.90;;;;;;10590323;27;20289;-62
2024/02/01 16:17:32;;;;;;;29.08;5.50;;;13.90;99.90;;;;;;10592455;27;20154;-63
2024/02/01 16:22:46;;;;;;;24.23;3.53;;;13.40;99.90;;;;;;10580711;27;20058;-61
2024/02/01 16:27:58;;;;;;;38.92;4.72;;;14.50;99.90;;;;;;10589024;27;20850;-62
2024/02/01 16:33:00;;;;;;;26.98;4.18;;;14.40;99.90;;;;;;10590802;27;20050;-64
2024/02/01 16:38:02;;;;;;;26.30;3.43;;;14.30;99.90;;;;;;10600536;27;20055;-62
2024/02/01 16:43:07;;;;;;;20.80;4.07;;;13.50;99.90;;;;;;10585181;27;20057;-63
2024/02/01 16:48:13;;;;;;;35.88;3.85;;;13.90;99.90;;;;;;10592637;27;20051;-62
2024/02/01 16:53:38;;;;;;;30.65;4.47;;;13.50;99.90;;;;;;10597676;27;20051;-62
2024/02/01 16:58:46;;;;;;;24.52;4.15;;;13.30;99.90;;;;;;10585765;27;20062;-63
2024/02/01 17:03:49;;;;;;;28.15;4.90;;;13.80;99.90;;;;;;10592590;27;20051;-63
2024/02/01 17:08:53;;;;;;;23.17;4.05;;;13.40;99.90;;;;;;10596791;27;20062;-63
2024/02/01 17:13:58;;;;;;;20.98;3.20;;;12.50;99.90;;;;;;10593334;27;20062;-63
2024/02/01 17:19:00;;;;;;;29.95;5.10;;;13.40;99.90;;;;;;10585365;27;20047;-62
2024/02/01 17:24:05;;;;;;;20.35;4.22;;;13.00;99.90;;;;;;10603278;27;20223;-61
2024/02/01 17:29:09;;;;;;;24.48;3.70;;;12.70;99.90;;;;;;10593895;27;20046;-63
2024/02/01 17:34:20;;;;;;;18.83;3.47;;;14.00;99.90;;;;;;10586151;27;20043;-63
2024/02/01 17:39:49;;;;;;;21.65;3.65;;;14.00;99.90;;;;;;10590819;27;20050;-63
2024/02/01 17:44:53;;;;;;;21.33;3.92;;;14.70;99.90;;;;;;10594200;27;20065;-64
2024/02/01 17:49:56;;;;;;;27.35;4.63;;;14.10;99.90;;;;;;10586284;27;20085;-62
2024/02/01 17:55:00;;;;;;;;;;;13.80;99.90;;;;;;10586860;27;20050;-62
2024/02/01 18:00:13;;;;;;;21.83;4.65;;;13.20;99.90;;;;;;10597277;27;19927;-63
2024/02/01 18:05:16;;;;;;;30.15;4.50;;;11.90;99.90;;;;;;10583572;27;20423;-62
2024/02/01 18:10:20;;;;;;;24.77;3.67;;;13.10;99.90;;;;;;10588105;27;20793;-61
2024/02/01 18:16:05;;;;;;;28.70;5.45;;;13.70;99.90;;;;;;10591739;27;20050;-63
2024/02/01 18:21:15;;;;;;;37.30;4.88;;;12.60;99.90;;;;;;10582515;27;20055;-61
2024/02/01 18:26:21;;;;;;;18.75;4.20;;;12.70;99.90;;;;;;10590904;27;20047;-61
2024/02/01 18:31:23;;;;;;;28.98;3.83;;;12.20;99.90;;;;;;10590757;27;20417;-63
2024/02/01 18:36:32;;;;;;;29.48;3.70;;;11.50;99.90;;;;;;10573620;27;20566;-61
2024/02/01 18:41:35;;;;;;;34.95;4.78;;;12.00;99.90;;;;;;10591914;27;20062;-61
2024/02/01 18:46:46;;;;;;;28.70;4.90;;;12.20;99.90;;;;;;10588087;27;20052;-58
2024/02/01 18:51:57;;;;;;;21.33;4.57;;;11.30;99.90;;;;;;10593382;27;20063;-61
2024/02/01 18:57:00;;;;;;;35.95;4.68;;;11.30;99.90;;;;;;10587951;27;20034;-60
2024/02/01 19:02:04;;;;;;;35.55;4.50;;;10.20;99.90;;;;;;10590235;27;20114;-63
2024/02/01 19:07:12;;;;;;;27.23;4.30;;;8.90;99.90;;;;;;10586695;27;22574;-60
2024/02/01 19:12:24;;;;;;;31.50;4.22;;;9.50;99.90;;;;;;10588855;27;20872;-62
2024/02/01 19:17:33;;;;;;;29.27;4.35;;;9.20;99.90;;;;;;10578732;27;20050;-61
2024/02/01 19:22:39;;;;;;;33.17;4.55;;;9.50;99.90;;;;;;10572746;27;20040;-61
2024/02/01 19:27:43;;;;;;;30.30;4.90;;;9.40;99.90;;;;;;10593038;27;20789;-61
2024/02/01 19:32:48;;;;;;;28.48;4.25;;;8.60;99.90;;;;;;10584086;27;20058;-62
2024/02/01 19:37:54;;;;;;;20.38;3.72;;;9.50;99.90;;;;;;10581934;27;20081;-62
2024/02/01 19:42:56;;;;;;;30.10;3.88;;;10.70;99.90;;;;;;10585919;27;20803;-62
2024/02/01 19:47:58;;;;;;;21.13;4.50;;;12.80;99.90;;;;;;10581036;27;20062;-63
2024/02/01 19:53:02;;;;;;;31.27;5.77;;;13.30;99.90;;;;;;10583576;27;20058;-62
2024/02/01 19:58:05;;;;;;;23.40;4.53;;;14.00;99.90;;;;;;10586675;27;20069;-61
2024/02/01 20:03:09;;;;;;;17.52;4.38;;;13.70;99.90;;;;;;10582084;27;20158;-63
2024/02/01 20:08:12;;;;;;;20.95;6.20;;;14.20;99.90;;;;;;10588339;27;20047;-63
2024/02/01 20:13:15;;;;;;;25.58;5.82;;;14.10;99.90;;;;;;10587955;27;20161;-62
2024/02/01 20:18:20;;;;;;;24.05;4.05;;;14.00;99.90;;;;;;10584479;27;20039;-63
2024/02/01 20:23:24;;;;;;;25.70;4.00;;;13.80;99.90;;;;;;10580017;27;20054;-62
2024/02/01 20:28:56;;;;;;;26.67;4.45;;;13.00;99.90;;;;;;10584406;27;20726;-63
2024/02/01 20:34:00;;;;;;;27.83;4.25;;;13.00;99.90;;;;;;10587737;27;20055;-63
2024/02/01 20:39:04;;;;;;;34.22;4.07;;;13.40;99.90;;;;;;10591150;27;20162;-61
2024/02/01 20:44:14;;;;;;;25.17;4.03;;;13.00;99.90;;;;;;10585794;27;20053;-61
2024/02/01 20:49:17;;;;;;;17.92;4.35;;;13.80;99.90;;;;;;10577429;27;20062;-62
2024/02/01 20:54:21;;;;;;;20.80;4.35;;;14.30;99.90;;;;;;10586100;27;20405;-60
2024/02/01 20:59:40;;;;;;;26.75;4.22;;;14.10;99.90;;;;;;10592003;27;20518;-62
2024/02/01 21:04:42;;;;;;;28.60;4.68;;;14.20;99.90;;;;;;10590873;27;20047;-61
2024/02/01 21:09:46;;;;;;;28.70;5.27;;;14.30;99.90;;;;;;10588215;27;20051;-61
2024/02/01 21:14:51;;;;;;;33.42;4.85;;;13.90;99.90;;;;;;10598390;27;20058;-62
2024/02/01 21:19:54;;;;;;;19.27;3.78;;;12.10;99.90;;;;;;10594600;27;20107;-62
2024/02/01 21:24:58;;;;;;;29.60;3.55;;;12.70;99.90;;;;;;10602071;27;20047;-61
2024/02/01 21:30:00;;;;;;;24.67;5.38;;;12.90;99.90;;;;;;10596844;27;20047;-61
2024/02/01 21:35:08;;;;;;;25.60;3.97;;;12.30;99.90;;;;;;10595190;27;20630;-61
2024/02/01 21:40:19;;;;;;;15.00;3.22;;;13.50;99.90;;;;;;10596294;27;20887;-64
2024/02/01 21:45:26;;;;;;;22.13;4.38;;;13.20;99.90;;;;;;10593529;27;20043;-63
2024/02/01 21:50:28;;;;;;;21.77;3.38;;;12.90;99.90;;;;;;10603975;27;20050;-61
2024/02/01 21:55:32;;;;;;;14.90;2.70;;;12.30;99.90;;;;;;10597954;27;20051;-61
2024/02/01 22:00:34;;;;;;;15.77;3.78;;;11.90;99.90;;;;;;10600248;27;20383;-62
2024/02/01 22:05:36;;;;;;;18.77;3.83;;;11.70;99.90;;;;;;10590715;27;20042;-61
2024/02/01 22:10:41;;;;;;;25.30;4.28;;;11.30;99.90;;;;;;10593454;27;20051;-60
2024/02/01 22:15:43;;;;;;;27.38;4.38;;;11.70;99.90;;;;;;10603575;27;20059;-61
2024/02/01 22:20:46;;;;;;;35.40;4.53;;;10.80;99.90;;;;;;10595518;27;20042;-62
2024/02/01 22:25:50;;;;;;;30.23;4.75;;;11.90;99.90;;;;;;10594475;27;20043;-61
2024/02/01 22:30:52;;;;;;;28.75;3.63;;;11.90;99.90;;;;;;10598070;27;20796;-62
2024/02/01 22:35:54;;;;;;;18.10;3.20;;;12.20;99.90;;;;;;10594096;27;20044;-62
2024/02/01 22:40:57;;;;;;;19.57;2.23;;;12.70;99.90;;;;;;10596384;27;20217;-60
2024/02/01 22:45:59;;;;;;;21.75;3.63;;;12.10;99.90;;;;;;10581570;27;20055;-62
2024/02/01 22:51:01;;;;;;;14.80;3.28;;;12.40;99.90;;;;;;10602036;27;20422;-62
2024/02/01 22:56:05;;;;;;;22.10;3.65;;;11.90;99.90;;;;;;10599164;27;20516;-62
2024/02/01 23:01:07;;;;;;;25.90;3.38;;;11.60;99.90;;;;;;10593187;27;20058;-62
2024/02/01 23:06:09;;;;;;;37.27;4.47;;;12.30;99.90;;;;;;10598446;27;20062;-61
2024/02/01 23:11:13;;;;;;;22.30;3.63;;;10.70;99.90;;;;;;10596600;27;20158;-62
2024/02/01 23:16:16;;;;;;;22.25;3.72;;;11.60;99.90;;;;;;10597123;27;20051;-61
2024/02/01 23:21:19;;;;;;;21.85;5.07;;;11.90;99.90;;;;;;10585730;27;20150;-61
2024/02/01 23:26:22;;;;;;;23.73;3.97;;;11.10;99.90;;;;;;10588262;27;20583;-62
2024/02/01 23:31:25;;;;;;;20.40;3.15;;;10.10;99.90;;;;;;10591061;27;20051;-62
2024/02/01 23:36:28;;;;;;;21.85;4.35;;;9.30;99.90;;;;;;10595519;27;20046;-61
2024/02/01 23:41:32;;;;;;;18.50;3.28;;;9.50;99.90;;;;;;10586652;27;20062;-60
2024/02/01 23:46:34;;;;;;;25.80;3.63;;;9.20;99.90;;;;;;10587318;27;20050;-61
2024/02/01 23:51:37;;;;;;;24.63;4.20;;;9.90;99.90;;;;;;10589825;27;20106;-60
2024/02/01 23:56:40;;;;;;;28.53;5.17;;;8.80;99.90;;;;;;10587182;27;20062;-60
